Time;durP1;ratioP1;P1;durP2;ratioP2;P2;SDS_P1;SDS_P2;PMS_P1;PMS_P2;Temp;Humidity;BMP_temperature;BMP_pressure;BME280_temperature;BME280_humidity;BME280_pressure;Samples;Min_cycle;Max_cycle;Signal;HPM_P1;HPM_P2
2022/01/10 00:01:28;;;;;;;10.20;4.53;;;;;;;;;;5015154;28;20056;-63
2022/01/10 00:04:13;;;;;;;8.13;4.00;;;;;;;;;;5013762;28;20396;-65
2022/01/10 00:06:58;;;;;;;11.85;5.07;;;;;;;;;;5013734;28;20033;-68
2022/01/10 00:09:44;;;;;;;9.88;5.40;;;;;;;;;;5003451;28;20549;-68
2022/01/10 00:12:29;;;;;;;10.05;4.63;;;;;;;;;;5015125;28;20038;-68
2022/01/10 00:15:16;;;;;;;9.45;4.85;;;;;;;;;;5012916;28;20527;-68
2022/01/10 00:18:01;;;;;;;9.85;5.53;;;;;;;;;;5014918;28;20033;-68
2022/01/10 00:20:46;;;;;;;13.93;6.32;;;;;;;;;;5013987;28;20187;-69
2022/01/10 00:23:32;;;;;;;12.90;6.32;;;;;;;;;;5014081;28;20037;-66
2022/01/10 00:26:17;;;;;;;10.55;5.68;;;;;;;;;;5013394;28;20112;-67
2022/01/10 00:29:02;;;;;;;12.02;5.78;;;;;;;;;;5013652;28;20072;-70
2022/01/10 00:31:48;;;;;;;10.32;5.45;;;;;;;;;;5013916;28;20037;-71
2022/01/10 00:34:33;;;;;;;15.10;5.75;;;;;;;;;;4994769;28;20038;-71
2022/01/10 00:37:19;;;;;;;8.90;5.30;;;;;;;;;;5025213;28;20095;-71
2022/01/10 00:40:05;;;;;;;10.95;5.60;;;;;;;;;;5000212;28;20061;-70
2022/01/10 00:42:55;;;;;;;12.00;6.18;;;;;;;;;;5013085;28;20033;-70
2022/01/10 00:45:41;;;;;;;9.70;5.22;;;;;;;;;;5000593;28;20112;-69
2022/01/10 00:48:26;;;;;;;9.95;5.53;;;;;;;;;;5002675;28;20077;-72
2022/01/10 00:51:11;;;;;;;14.50;5.65;;;;;;;;;;5017461;28;20124;-70
2022/01/10 00:53:57;;;;;;;12.35;5.80;;;;;;;;;;5004883;28;20054;-72
2022/01/10 00:56:43;;;;;;;9.30;5.75;;;;;;;;;;5017084;28;20506;-72
2022/01/10 00:59:28;;;;;;;12.43;5.78;;;;;;;;;;5017444;28;20068;-74
2022/01/10 01:02:13;;;;;;;13.40;7.28;;;;;;;;;;5016945;28;20033;-67
2022/01/10 01:05:00;;;;;;;10.88;6.63;;;;;;;;;;5017253;28;20029;-73
2022/01/10 01:07:45;;;;;;;12.15;6.38;;;;;;;;;;5003751;28;20043;-70
2022/01/10 01:24:41;;;;;;;15.10;5.72;;;;;;;;;;5013772;28;20029;-71
2022/01/10 01:27:27;;;;;;;17.17;7.55;;;;;;;;;;5017886;28;20120;-69
2022/01/10 01:30:12;;;;;;;13.95;6.43;;;;;;;;;;5016836;28;20029;-69
2022/01/10 01:32:58;;;;;;;9.48;5.55;;;;;;;;;;5015835;28;20075;-69
2022/01/10 01:35:44;;;;;;;10.48;6.82;;;;;;;;;;5017067;28;20034;-67
2022/01/10 01:38:29;;;;;;;13.07;7.00;;;;;;;;;;5016350;28;20119;-68
2022/01/10 01:44:09;;;;;;;10.80;6.45;;;;;;;;;;5016084;28;20103;-65
2022/01/10 01:46:55;;;;;;;10.95;5.95;;;;;;;;;;5017927;28;20040;-66
2022/01/10 01:49:40;;;;;;;11.13;5.63;;;;;;;;;;5015845;28;20125;-65
2022/01/10 01:52:26;;;;;;;12.80;8.07;;;;;;;;;;5017358;28;20677;-65
2022/01/10 01:55:11;;;;;;;14.13;8.52;;;;;;;;;;5008433;28;20583;-64
2022/01/10 01:57:56;;;;;;;16.45;8.23;;;;;;;;;;5014966;28;20038;-69
2022/01/10 02:00:42;;;;;;;15.10;8.32;;;;;;;;;;5012565;28;20053;-69
2022/01/10 02:03:27;;;;;;;12.95;7.90;;;;;;;;;;5016673;28;20026;-69
2022/01/10 02:06:13;;;;;;;12.27;6.47;;;;;;;;;;5016353;28;20057;-70
2022/01/10 02:08:58;;;;;;;13.95;7.15;;;;;;;;;;5017143;28;20041;-69
2022/01/10 02:11:44;;;;;;;12.35;7.40;;;;;;;;;;5015587;28;20087;-67
2022/01/10 02:14:29;;;;;;;13.77;8.20;;;;;;;;;;5016443;28;20032;-68
2022/01/10 02:17:19;;;;;;;13.65;7.00;;;;;;;;;;5013924;28;20037;-69
2022/01/10 02:20:05;;;;;;;11.15;6.97;;;;;;;;;;5000460;28;20030;-64
2022/01/10 02:22:50;;;;;;;12.60;7.13;;;;;;;;;;5002446;28;20040;-65
2022/01/10 02:25:35;;;;;;;14.68;7.03;;;;;;;;;;5015245;28;20035;-64
2022/01/10 02:28:21;;;;;;;11.93;6.20;;;;;;;;;;5016641;28;20033;-65
2022/01/10 02:31:07;;;;;;;13.48;7.30;;;;;;;;;;5011643;28;20041;-66
2022/01/10 02:33:56;;;;;;;14.48;7.45;;;;;;;;;;4997125;28;20412;-64
2022/01/10 02:36:41;;;;;;;;;;;;;;;;;;5008104;28;20452;-67
2022/01/10 02:39:27;;;;;;;13.88;6.95;;;;;;;;;;5010442;28;19913;-70
2022/01/10 02:42:12;;;;;;;11.98;6.70;;;;;;;;;;5009805;28;20120;-69
2022/01/10 02:44:57;;;;;;;12.05;6.45;;;;;;;;;;5023809;28;20677;-69
2022/01/10 02:47:43;;;;;;;10.85;6.75;;;;;;;;;;5015532;28;20034;-69
2022/01/10 02:50:28;;;;;;;8.18;5.10;;;;;;;;;;5015770;28;20033;-70
2022/01/10 02:53:13;;;;;;;14.10;6.70;;;;;;;;;;5014657;28;20376;-70
2022/01/10 02:55:59;;;;;;;16.48;8.13;;;;;;;;;;5029663;28;20060;-64
2022/01/10 02:58:44;;;;;;;12.73;6.43;;;;;;;;;;5011971;28;20479;-64
2022/01/10 03:01:29;;;;;;;11.82;6.22;;;;;;;;;;5015341;28;20089;-66
2022/01/10 03:04:17;;;;;;;13.00;7.00;;;;;;;;;;5013873;28;20403;-66
2022/01/10 03:07:03;;;;;;;12.93;5.70;;;;;;;;;;5015234;28;20479;-65
2022/01/10 03:09:50;;;;;;;7.40;4.88;;;;;;;;;;5003322;28;20116;-66
2022/01/10 03:12:35;;;;;;;11.40;6.47;;;;;;;;;;5013942;28;20512;-64
2022/01/10 03:15:21;;;;;;;10.30;6.65;;;;;;;;;;5015434;28;20047;-68
2022/01/10 03:18:06;;;;;;;11.15;5.93;;;;;;;;;;5014278;28;20488;-69
2022/01/10 03:20:51;;;;;;;11.13;5.97;;;;;;;;;;5015789;28;20261;-68
2022/01/10 03:23:37;;;;;;;12.57;6.38;;;;;;;;;;5014870;28;20033;-70
2022/01/10 03:26:24;;;;;;;12.27;5.85;;;;;;;;;;5015200;28;20095;-69
2022/01/10 03:29:09;;;;;;;10.80;5.75;;;;;;;;;;5001224;28;20678;-65
2022/01/10 03:31:54;;;;;;;12.82;7.13;;;;;;;;;;5015523;28;20042;-65
2022/01/10 03:34:39;;;;;;;12.93;6.60;;;;;;;;;;5011180;28;20025;-70
2022/01/10 03:37:25;;;;;;;11.18;6.68;;;;;;;;;;4990001;28;20066;-70
2022/01/10 03:40:11;;;;;;;10.02;6.30;;;;;;;;;;5012283;28;20076;-72
2022/01/10 03:42:56;;;;;;;11.70;7.07;;;;;;;;;;5015078;28;20112;-71
2022/01/10 03:45:41;;;;;;;14.27;7.68;;;;;;;;;;5013730;28;20369;-71
2022/01/10 03:48:26;;;;;;;11.63;5.80;;;;;;;;;;5014567;28;20144;-69
2022/01/10 03:51:12;;;;;;;15.60;7.63;;;;;;;;;;5013610;28;20048;-64
2022/01/10 03:53:57;;;;;;;11.85;6.22;;;;;;;;;;5014705;28;20052;-63
2022/01/10 03:56:42;;;;;;;12.43;5.97;;;;;;;;;;5014044;28;20380;-64
2022/01/10 03:59:28;;;;;;;13.43;6.55;;;;;;;;;;5013386;28;20029;-64
2022/01/10 04:02:13;;;;;;;11.65;6.80;;;;;;;;;;5005348;28;20045;-63
2022/01/10 04:04:58;;;;;;;14.05;5.60;;;;;;;;;;4997315;28;20503;-64
2022/01/10 04:07:44;;;;;;;12.00;5.93;;;;;;;;;;5008633;28;20041;-67
2022/01/10 04:10:29;;;;;;;12.68;6.65;;;;;;;;;;5012357;28;20107;-65
2022/01/10 04:13:15;;;;;;;13.73;6.68;;;;;;;;;;5028350;28;20030;-66
2022/01/10 04:16:00;;;;;;;11.40;5.95;;;;;;;;;;5014050;28;20025;-66
2022/01/10 04:18:45;;;;;;;11.23;5.78;;;;;;;;;;5028431;28;20064;-65
2022/01/10 04:21:30;;;;;;;14.45;6.25;;;;;;;;;;5013831;28;20092;-68
2022/01/10 04:24:15;;;;;;;10.65;5.65;;;;;;;;;;5012001;28;20499;-67
2022/01/10 04:27:01;;;;;;;12.13;5.10;;;;;;;;;;5000727;28;20144;-68
2022/01/10 04:29:46;;;;;;;14.05;6.10;;;;;;;;;;5007467;28;20041;-65
2022/01/10 04:32:32;;;;;;;13.45;5.85;;;;;;;;;;5013021;28;20048;-66
2022/01/10 04:35:18;;;;;;;12.15;6.07;;;;;;;;;;5013823;28;20033;-64
2022/01/10 04:38:03;;;;;;;10.68;5.22;;;;;;;;;;5003582;28;20499;-64
2022/01/10 04:40:49;;;;;;;15.23;5.93;;;;;;;;;;5014205;28;20040;-64
2022/01/10 04:43:35;;;;;;;8.75;4.40;;;;;;;;;;5013399;28;20871;-63
2022/01/10 04:46:20;;;;;;;8.45;4.38;;;;;;;;;;5013986;28;20421;-67
2022/01/10 04:49:10;;;;;;;14.07;5.53;;;;;;;;;;5013354;28;20124;-68
2022/01/10 04:51:56;;;;;;;14.63;5.80;;;;;;;;;;5017500;28;20416;-68
2022/01/10 04:54:41;;;;;;;12.27;4.85;;;;;;;;;;4999203;28;20037;-68
2022/01/10 04:57:27;;;;;;;11.15;4.78;;;;;;;;;;5013550;28;20465;-69
2022/01/10 05:00:13;;;;;;;10.20;4.57;;;;;;;;;;5008187;28;20492;-67
2022/01/10 05:02:59;;;;;;;17.40;4.75;;;;;;;;;;5013590;28;20147;-65
2022/01/10 05:05:44;;;;;;;11.10;4.72;;;;;;;;;;5013126;28;20034;-70
2022/01/10 05:08:30;;;;;;;12.85;4.80;;;;;;;;;;5014079;28;20116;-70
2022/01/10 05:11:16;;;;;;;8.70;4.20;;;;;;;;;;5012553;28;20123;-70
2022/01/10 05:14:02;;;;;;;8.63;4.25;;;;;;;;;;5013483;28;20053;-70
2022/01/10 05:16:47;;;;;;;10.20;4.68;;;;;;;;;;5012981;28;20710;-69
2022/01/10 05:19:33;;;;;;;13.00;4.55;;;;;;;;;;5013711;28;20029;-71
2022/01/10 05:22:18;;;;;;;13.60;5.47;;;;;;;;;;5005079;28;20029;-70
2022/01/10 05:25:04;;;;;;;10.90;4.25;;;;;;;;;;4988421;28;20033;-67
2022/01/10 05:27:49;;;;;;;15.77;5.57;;;;;;;;;;5014131;28;20044;-66
2022/01/10 05:30:34;;;;;;;9.88;4.15;;;;;;;;;;5013008;28;20041;-68
2022/01/10 05:33:19;;;;;;;15.32;5.80;;;;;;;;;;5014001;28;20392;-68
2022/01/10 05:36:05;;;;;;;10.20;5.15;;;;;;;;;;5016257;28;21884;-67
2022/01/10 05:38:50;;;;;;;15.68;6.22;;;;;;;;;;5012897;28;20052;-69
2022/01/10 05:41:36;;;;;;;12.45;5.55;;;;;;;;;;5010852;28;20052;-64
2022/01/10 05:44:22;;;;;;;14.98;5.75;;;;;;;;;;5015219;28;20052;-65
2022/01/10 05:47:07;;;;;;;14.65;6.03;;;;;;;;;;5016324;28;20734;-65
2022/01/10 05:50:00;;;;;;;14.85;6.13;;;;;;;;;;4984609;28;20030;-66
2022/01/10 05:52:46;;;;;;;15.15;6.03;;;;;;;;;;5015591;28;20036;-65
2022/01/10 05:55:31;;;;;;;8.70;4.57;;;;;;;;;;5016538;28;20098;-64
2022/01/10 05:58:17;;;;;;;12.75;6.60;;;;;;;;;;5006012;28;20036;-67
2022/01/10 06:01:03;;;;;;;10.63;5.53;;;;;;;;;;5005705;28;20033;-68
2022/01/10 06:03:48;;;;;;;14.38;6.28;;;;;;;;;;5012419;28;20412;-69
2022/01/10 06:06:33;;;;;;;15.00;6.57;;;;;;;;;;5007533;28;20033;-72
2022/01/10 06:09:19;;;;;;;14.15;6.20;;;;;;;;;;5007858;28;20512;-68
2022/01/10 06:12:04;;;;;;;9.80;5.28;;;;;;;;;;4999934;28;20037;-69
2022/01/10 06:14:49;;;;;;;16.55;6.80;;;;;;;;;;5016345;28;20037;-66
2022/01/10 06:17:35;;;;;;;16.35;6.82;;;;;;;;;;4995426;28;20059;-68
2022/01/10 06:20:20;;;;;;;14.55;6.10;;;;;;;;;;5003495;28;20077;-66
2022/01/10 06:23:05;;;;;;;14.45;6.70;;;;;;;;;;5031087;28;20036;-65
2022/01/10 06:25:51;;;;;;;16.00;6.15;;;;;;;;;;5016445;28;20112;-66
2022/01/10 06:28:36;;;;;;;13.45;5.10;;;;;;;;;;5010774;28;20033;-65
2022/01/10 06:31:21;;;;;;;14.50;6.38;;;;;;;;;;5016094;28;20099;-65
2022/01/10 06:34:06;;;;;;;11.88;5.07;;;;;;;;;;5012547;28;20538;-66
2022/01/10 06:36:53;;;;;;;10.52;4.95;;;;;;;;;;4999882;28;20033;-69
2022/01/10 06:39:38;;;;;;;16.20;5.07;;;;;;;;;;5006312;28;20037;-68
2022/01/10 06:42:23;;;;;;;15.32;6.82;;;;;;;;;;4996697;28;20453;-69
2022/01/10 06:45:09;;;;;;;14.90;7.10;;;;;;;;;;5013440;28;20469;-68
2022/01/10 06:47:55;;;;;;;11.98;6.50;;;;;;;;;;4992775;28;20052;-70
2022/01/10 06:50:42;;;;;;;21.13;7.18;;;;;;;;;;5014104;28;20029;-68
2022/01/10 06:53:27;;;;;;;14.95;6.90;;;;;;;;;;5012993;28;20029;-65
2022/01/10 06:56:12;;;;;;;14.13;6.80;;;;;;;;;;5014035;28;20116;-65
2022/01/10 06:58:57;;;;;;;14.80;7.95;;;;;;;;;;5007491;28;20048;-65
2022/01/10 07:01:43;;;;;;;15.02;7.18;;;;;;;;;;5002215;28;20037;-69
2022/01/10 07:04:28;;;;;;;15.68;8.05;;;;;;;;;;5010985;28;21252;-68
2022/01/10 07:07:13;;;;;;;18.17;9.20;;;;;;;;;;5014260;28;20049;-78
2022/01/10 07:09:59;;;;;;;24.52;12.82;;;;;;;;;;5004348;28;20045;-62
2022/01/10 07:12:44;;;;;;;25.70;14.68;;;;;;;;;;5023299;28;20036;-62
2022/01/10 07:15:29;;;;;;;34.83;15.27;;;;;;;;;;4995603;28;20139;-61
2022/01/10 07:18:15;;;;;;;24.98;15.00;;;;;;;;;;5020484;28;20057;-69
2022/01/10 07:21:00;;;;;;;32.25;17.88;;;;;;;;;;5008354;28;20041;-69
2022/01/10 07:23:45;;;;;;;31.13;14.35;;;;;;;;;;5008749;28;20040;-66
2022/01/10 07:26:32;;;;;;;21.02;12.32;;;;;;;;;;4993708;28;21195;-68
2022/01/10 07:29:17;;;;;;;25.00;14.13;;;;;;;;;;5011744;28;20073;-68
2022/01/10 07:32:02;;;;;;;38.08;17.65;;;;;;;;;;5011707;28;20072;-70
2022/01/10 07:34:48;;;;;;;32.90;16.33;;;;;;;;;;5003885;28;20396;-67
2022/01/10 07:37:33;;;;;;;27.20;15.32;;;;;;;;;;5011547;28;20045;-65
2022/01/10 07:40:18;;;;;;;24.80;13.68;;;;;;;;;;5013075;28;20040;-66
2022/01/10 07:43:04;;;;;;;25.48;13.00;;;;;;;;;;5012148;28;20195;-68
2022/01/10 07:45:49;;;;;;;23.25;12.68;;;;;;;;;;5013330;28;20090;-66
2022/01/10 07:48:36;;;;;;;25.80;13.57;;;;;;;;;;4995960;28;20034;-69
2022/01/10 07:51:21;;;;;;;23.05;13.35;;;;;;;;;;4994416;28;20029;-73
2022/01/10 07:54:07;;;;;;;27.85;13.85;;;;;;;;;;4997385;28;20037;-68
2022/01/10 07:56:53;;;;;;;27.35;13.95;;;;;;;;;;5006360;28;20056;-74
2022/01/10 07:59:38;;;;;;;25.65;14.50;;;;;;;;;;5010283;28;20460;-67
2022/01/10 08:02:24;;;;;;;24.85;14.20;;;;;;;;;;5012732;28;20160;-66
2022/01/10 08:05:10;;;;;;;25.80;13.43;;;;;;;;;;5004012;28;20652;-66
2022/01/10 08:07:56;;;;;;;26.00;15.13;;;;;;;;;;5008491;28;20061;-64
2022/01/10 08:10:41;;;;;;;24.55;12.98;;;;;;;;;;5012790;28;20116;-64
2022/01/10 08:13:26;;;;;;;23.33;14.80;;;;;;;;;;4999275;28;20037;-64
2022/01/10 08:16:11;;;;;;;28.30;15.85;;;;;;;;;;5004125;28;20029;-64
2022/01/10 08:18:57;;;;;;;28.08;15.80;;;;;;;;;;5010144;28;20037;-63
2022/01/10 08:21:42;;;;;;;24.30;13.40;;;;;;;;;;5013295;28;20072;-64
2022/01/10 08:24:28;;;;;;;25.65;14.25;;;;;;;;;;5012344;28;20052;-63
2022/01/10 08:27:14;;;;;;;29.65;13.50;;;;;;;;;;5011625;28;20519;-68
2022/01/10 08:29:59;;;;;;;22.63;13.05;;;;;;;;;;5011883;28;20121;-67
2022/01/10 08:32:49;;;;;;;21.52;12.73;;;;;;;;;;5002586;28;20365;-68
2022/01/10 08:35:35;;;;;;;27.90;14.10;;;;;;;;;;5010918;28;20133;-68
2022/01/10 08:38:20;;;;;;;18.95;11.77;;;;;;;;;;5010035;28;20037;-69
2022/01/10 08:41:06;;;;;;;18.98;12.48;;;;;;;;;;5007334;28;20511;-70
2022/01/10 08:43:51;;;;;;;21.48;13.00;;;;;;;;;;5012499;28;20364;-74
2022/01/10 08:46:36;;;;;;;23.60;13.13;;;;;;;;;;5007478;28;20368;-69
2022/01/10 08:49:21;;;;;;;17.85;11.32;;;;;;;;;;5010363;28;20042;-68
2022/01/10 08:52:07;;;;;;;18.23;11.50;;;;;;;;;;5008186;28;20030;-67
2022/01/10 08:54:53;;;;;;;21.60;11.45;;;;;;;;;;4990006;28;20791;-67
2022/01/10 08:57:38;;;;;;;20.45;12.77;;;;;;;;;;5011425;28;20655;-67
2022/01/10 09:00:23;;;;;;;18.70;11.07;;;;;;;;;;5008173;28;20112;-69
2022/01/10 09:03:08;;;;;;;17.98;11.32;;;;;;;;;;4995698;28;20492;-69
2022/01/10 09:05:55;;;;;;;18.05;10.98;;;;;;;;;;5007514;28;20033;-68
2022/01/10 09:08:41;;;;;;;21.92;12.55;;;;;;;;;;5012340;28;20593;-67
2022/01/10 09:11:26;;;;;;;21.42;11.75;;;;;;;;;;5012991;28;20052;-68
2022/01/10 09:14:12;;;;;;;20.45;11.38;;;;;;;;;;5013609;28;20061;-69
2022/01/10 09:16:57;;;;;;;22.83;10.55;;;;;;;;;;5012501;28;20025;-67
2022/01/10 09:19:42;;;;;;;21.83;12.02;;;;;;;;;;5016609;28;20419;-64
2022/01/10 09:22:27;;;;;;;21.15;12.23;;;;;;;;;;5014418;28;20025;-65
2022/01/10 09:25:13;;;;;;;18.25;11.10;;;;;;;;;;5009295;28;20283;-67
2022/01/10 09:27:58;;;;;;;25.08;13.25;;;;;;;;;;5013886;28;20059;-67
2022/01/10 09:30:44;;;;;;;20.27;11.73;;;;;;;;;;5008517;28;20421;-67
2022/01/10 09:33:29;;;;;;;21.58;12.70;;;;;;;;;;5014008;28;20030;-68
2022/01/10 09:36:14;;;;;;;25.65;13.52;;;;;;;;;;5015129;28;20476;-67
2022/01/10 09:39:00;;;;;;;21.88;13.18;;;;;;;;;;5013015;28;20032;-64
2022/01/10 09:41:46;;;;;;;22.75;13.80;;;;;;;;;;5015884;28;20380;-67
2022/01/10 09:44:34;;;;;;;21.52;13.60;;;;;;;;;;5015448;28;20064;-67
2022/01/10 09:47:19;;;;;;;24.30;14.27;;;;;;;;;;5010542;28;20037;-61
2022/01/10 09:50:06;;;;;;;21.25;11.75;;;;;;;;;;5004526;28;20116;-62
2022/01/10 09:52:52;;;;;;;21.92;12.75;;;;;;;;;;5009065;28;20029;-65
2022/01/10 09:55:37;;;;;;;23.90;13.30;;;;;;;;;;5016774;28;20073;-64
2022/01/10 09:58:23;;;;;;;26.10;13.30;;;;;;;;;;5009749;28;20043;-64
2022/01/10 10:01:08;;;;;;;22.52;13.52;;;;;;;;;;5007102;28;20439;-63
2022/01/10 10:03:58;;;;;;;24.10;12.88;;;;;;;;;;5007529;28;20034;-65
2022/01/10 10:06:44;;;;;;;25.48;14.20;;;;;;;;;;5009665;28;20430;-62
2022/01/10 10:09:30;;;;;;;27.88;13.55;;;;;;;;;;5010248;28;20036;-65
2022/01/10 10:12:15;;;;;;;21.70;13.10;;;;;;;;;;4998589;28;20171;-64
2022/01/10 10:15:02;;;;;;;25.15;13.45;;;;;;;;;;5013783;28;20492;-75
2022/01/10 10:17:47;;;;;;;26.38;13.25;;;;;;;;;;4997470;28;20124;-64
2022/01/10 10:20:33;;;;;;;25.63;14.38;;;;;;;;;;5010419;28;20103;-64
2022/01/10 10:23:18;;;;;;;29.42;15.07;;;;;;;;;;4997913;28;20528;-66
2022/01/10 10:26:04;;;;;;;23.05;12.98;;;;;;;;;;4998058;28;20166;-63
2022/01/10 10:28:50;;;;;;;29.23;15.57;;;;;;;;;;5006278;28;20034;-68
2022/01/10 10:31:37;;;;;;;28.30;15.63;;;;;;;;;;5013169;28;20041;-66
2022/01/10 10:34:23;;;;;;;28.05;15.38;;;;;;;;;;5010083;28;20063;-65
2022/01/10 10:37:10;;;;;;;26.33;13.95;;;;;;;;;;4997750;28;20382;-68
2022/01/10 10:39:55;;;;;;;24.67;14.60;;;;;;;;;;5006057;28;20475;-66
2022/01/10 10:42:42;;;;;;;22.52;13.30;;;;;;;;;;5012491;28;20033;-67
2022/01/10 10:45:28;;;;;;;27.45;16.17;;;;;;;;;;5013919;28;20041;-68
2022/01/10 10:48:14;;;;;;;23.45;14.35;;;;;;;;;;5011362;28;20496;-69
2022/01/10 10:51:01;;;;;;;25.02;15.55;;;;;;;;;;4999524;28;20060;-67
2022/01/10 10:53:46;;;;;;;27.85;14.68;;;;;;;;;;5015179;28;20029;-69
2022/01/10 10:56:33;;;;;;;27.80;15.57;;;;;;;;;;4997081;28;20041;-67
2022/01/10 10:59:18;;;;;;;28.30;14.85;;;;;;;;;;5012006;28;20068;-66
2022/01/10 11:02:04;;;;;;;25.88;15.02;;;;;;;;;;5029238;28;20033;-69
2022/01/10 11:04:49;;;;;;;28.45;15.02;;;;;;;;;;5009836;28;20091;-65
2022/01/10 11:07:35;;;;;;;24.92;15.93;;;;;;;;;;4998134;28;20040;-66
2022/01/10 11:10:20;;;;;;;21.50;12.45;;;;;;;;;;5012403;28;20082;-70
2022/01/10 11:13:06;;;;;;;28.70;13.48;;;;;;;;;;5015002;28;20033;-65
2022/01/10 11:15:52;;;;;;;23.27;12.82;;;;;;;;;;5007259;28;20061;-68
2022/01/10 11:18:38;;;;;;;24.88;14.77;;;;;;;;;;5013543;28;20103;-66
2022/01/10 11:21:23;;;;;;;25.98;15.13;;;;;;;;;;5011879;28;20088;-65
2022/01/10 11:24:09;;;;;;;23.33;12.52;;;;;;;;;;5010120;28;20075;-65
2022/01/10 11:26:54;;;;;;;23.50;13.07;;;;;;;;;;4994025;28;20033;-65
2022/01/10 11:29:43;;;;;;;25.55;13.93;;;;;;;;;;5014140;28;20096;-65
2022/01/10 11:32:48;;;;;;;21.88;13.35;;;;;;;;;;5011763;28;20036;-66
2022/01/10 11:35:44;;;;;;;23.80;13.48;;;;;;;;;;4998745;28;20484;-66
2022/01/10 11:38:37;;;;;;;26.92;15.65;;;;;;;;;;5013153;28;20044;-68
2022/01/10 11:41:24;;;;;;;30.38;14.77;;;;;;;;;;5012735;28;20120;-68
2022/01/10 11:44:12;;;;;;;24.92;13.05;;;;;;;;;;5012213;28;20112;-65
2022/01/10 11:46:59;;;;;;;26.50;13.80;;;;;;;;;;4999713;28;20091;-66
2022/01/10 11:49:44;;;;;;;27.75;14.27;;;;;;;;;;5014123;28;20051;-66
2022/01/10 11:52:30;;;;;;;24.13;13.25;;;;;;;;;;5012547;28;20037;-66
2022/01/10 11:55:16;;;;;;;23.90;15.43;;;;;;;;;;5012367;28;20039;-64
2022/01/10 11:58:21;;;;;;;22.20;13.60;;;;;;;;;;5011944;28;20030;-65
2022/01/10 12:01:06;;;;;;;20.15;12.57;;;;;;;;;;5013148;28;20380;-66
2022/01/10 12:03:52;;;;;;;21.10;11.95;;;;;;;;;;5011426;28;20710;-68
2022/01/10 12:06:38;;;;;;;21.15;11.25;;;;;;;;;;5012908;28;20051;-67
2022/01/10 12:09:23;;;;;;;22.92;12.23;;;;;;;;;;5004212;28;20060;-66
2022/01/10 12:12:10;;;;;;;19.83;11.82;;;;;;;;;;5010766;28;20035;-67
2022/01/10 12:14:56;;;;;;;24.85;11.65;;;;;;;;;;5011191;28;20029;-67
2022/01/10 12:17:42;;;;;;;24.05;12.48;;;;;;;;;;5012201;28;20033;-66
2022/01/10 12:20:27;;;;;;;22.27;11.70;;;;;;;;;;5011995;28;20041;-66
2022/01/10 12:23:12;;;;;;;18.60;11.38;;;;;;;;;;5013101;28;20134;-64
2022/01/10 12:25:58;;;;;;;22.10;11.98;;;;;;;;;;5010395;28;20029;-72
2022/01/10 12:28:44;;;;;;;17.30;10.52;;;;;;;;;;4993444;28;20060;-67
2022/01/10 12:31:30;;;;;;;25.10;12.82;;;;;;;;;;5010373;28;20762;-61
2022/01/10 12:34:15;;;;;;;19.30;11.45;;;;;;;;;;5005363;28;20041;-64
2022/01/10 12:37:01;;;;;;;20.40;10.73;;;;;;;;;;5012871;28;20488;-62
2022/01/10 12:39:46;;;;;;;22.80;11.75;;;;;;;;;;5011738;28;20079;-63
2022/01/10 12:42:31;;;;;;;22.38;11.05;;;;;;;;;;5028598;28;20104;-70
2022/01/10 12:45:17;;;;;;;20.15;10.65;;;;;;;;;;5026466;28;20144;-69
2022/01/10 12:48:02;;;;;;;21.88;11.15;;;;;;;;;;5015388;28;20025;-66
2022/01/10 12:50:48;;;;;;;23.50;11.35;;;;;;;;;;5017643;28;20492;-69
2022/01/10 12:53:33;;;;;;;22.25;12.40;;;;;;;;;;4995151;28;20030;-68
2022/01/10 12:56:21;;;;;;;19.80;11.68;;;;;;;;;;5012586;28;20041;-67
2022/01/10 12:59:07;;;;;;;22.45;11.50;;;;;;;;;;5001560;28;20261;-66
2022/01/10 13:01:53;;;;;;;20.10;11.40;;;;;;;;;;5010991;28;20040;-69
2022/01/10 13:04:39;;;;;;;23.77;12.15;;;;;;;;;;5012971;28;20161;-66
2022/01/10 13:07:25;;;;;;;24.55;13.27;;;;;;;;;;5010985;28;20037;-67
2022/01/10 13:10:18;;;;;;;26.92;13.88;;;;;;;;;;5014621;28;20041;-64
2022/01/10 13:13:03;;;;;;;24.90;11.98;;;;;;;;;;5002691;28;20025;-64
2022/01/10 13:15:49;;;;;;;26.33;14.00;;;;;;;;;;5014636;28;20072;-63
2022/01/10 13:18:34;;;;;;;20.42;13.32;;;;;;;;;;5015447;28;20106;-64
2022/01/10 13:21:28;;;;;;;24.35;13.25;;;;;;;;;;5015562;28;20095;-69
2022/01/10 13:24:25;;;;;;;21.27;11.65;;;;;;;;;;5003261;28;20137;-64
2022/01/10 13:27:18;;;;;;;24.90;13.52;;;;;;;;;;5010762;28;20128;-68
2022/01/10 13:30:11;;;;;;;24.20;12.60;;;;;;;;;;5010856;28;20065;-68
2022/01/10 13:32:58;;;;;;;30.65;13.73;;;;;;;;;;5014552;28;20469;-66
2022/01/10 13:35:53;;;;;;;26.13;13.10;;;;;;;;;;5005611;28;20025;-64
2022/01/10 13:38:38;;;;;;;27.73;14.02;;;;;;;;;;5014474;28;20116;-66
2022/01/10 13:41:23;;;;;;;21.55;12.55;;;;;;;;;;5013626;28;20287;-71
2022/01/10 13:44:09;;;;;;;23.52;13.23;;;;;;;;;;5014550;28;20045;-73
2022/01/10 13:47:01;;;;;;;25.33;13.25;;;;;;;;;;5013181;28;21242;-74
2022/01/10 13:49:47;;;;;;;23.75;13.02;;;;;;;;;;5013113;28;20069;-76
2022/01/10 13:52:33;;;;;;;21.23;13.50;;;;;;;;;;5030893;28;20112;-73
2022/01/10 13:55:19;;;;;;;23.85;13.93;;;;;;;;;;5013232;28;20474;-66
2022/01/10 13:58:07;;;;;;;19.85;12.63;;;;;;;;;;4999070;28;20516;-75
2022/01/10 14:00:53;;;;;;;23.48;12.93;;;;;;;;;;5013549;28;20480;-65
2022/01/10 14:03:39;;;;;;;23.60;12.77;;;;;;;;;;5014369;28;20042;-63
2022/01/10 14:06:24;;;;;;;29.83;13.27;;;;;;;;;;5014747;28;20037;-62
2022/01/10 14:09:09;;;;;;;23.65;12.57;;;;;;;;;;5015123;28;20060;-64
2022/01/10 14:11:55;;;;;;;30.45;14.48;;;;;;;;;;5014587;28;20104;-64
2022/01/10 14:14:40;;;;;;;24.05;12.35;;;;;;;;;;5015670;28;20048;-62
2022/01/10 14:17:25;;;;;;;22.10;13.30;;;;;;;;;;5015308;28;20669;-65
2022/01/10 14:20:11;;;;;;;22.60;12.52;;;;;;;;;;4996332;28;20037;-68
2022/01/10 14:22:56;;;;;;;25.60;13.88;;;;;;;;;;5001790;28;20495;-65
2022/01/10 14:25:42;;;;;;;27.88;13.80;;;;;;;;;;5013356;28;20044;-66
2022/01/10 14:28:28;;;;;;;27.73;13.60;;;;;;;;;;4999062;28;20033;-65
2022/01/10 14:31:13;;;;;;;29.13;14.43;;;;;;;;;;5013723;28;20029;-63
2022/01/10 14:33:59;;;;;;;29.48;14.48;;;;;;;;;;5013962;28;20098;-71
2022/01/10 14:36:44;;;;;;;25.80;14.57;;;;;;;;;;4997140;28;20041;-67
2022/01/10 14:39:29;;;;;;;21.77;12.95;;;;;;;;;;5007345;28;20037;-68
2022/01/10 14:42:14;;;;;;;30.13;13.50;;;;;;;;;;5013624;28;20487;-67
2022/01/10 14:45:00;;;;;;;27.90;13.48;;;;;;;;;;5014974;28;20030;-65
2022/01/10 14:47:45;;;;;;;21.77;13.93;;;;;;;;;;5007237;28;20030;-69
2022/01/10 14:50:30;;;;;;;21.40;13.63;;;;;;;;;;5015004;28;20430;-63
2022/01/10 14:53:16;;;;;;;27.92;14.68;;;;;;;;;;5010885;28;20122;-72
2022/01/10 14:56:03;;;;;;;22.77;12.43;;;;;;;;;;5014171;28;20056;-65
2022/01/10 14:58:48;;;;;;;25.42;12.18;;;;;;;;;;5010125;28;20117;-63
2022/01/10 15:01:34;;;;;;;25.27;13.75;;;;;;;;;;4994320;28;20048;-64
2022/01/10 15:04:19;;;;;;;26.50;14.05;;;;;;;;;;5013131;28;20116;-62
2022/01/10 15:07:04;;;;;;;29.33;13.95;;;;;;;;;;5005244;28;20037;-62
2022/01/10 15:09:49;;;;;;;18.70;11.63;;;;;;;;;;5013647;28;20106;-65
2022/01/10 15:12:35;;;;;;;22.48;13.23;;;;;;;;;;4999733;28;20084;-67
2022/01/10 15:15:20;;;;;;;26.23;12.50;;;;;;;;;;5012478;28;20116;-66
2022/01/10 15:18:05;;;;;;;24.23;14.75;;;;;;;;;;5011242;28;20045;-69
2022/01/10 15:20:51;;;;;;;20.85;13.40;;;;;;;;;;5013570;28;20484;-69
2022/01/10 15:23:36;;;;;;;26.63;13.77;;;;;;;;;;5008504;28;20020;-68
2022/01/10 15:26:21;;;;;;;25.77;12.38;;;;;;;;;;5006308;28;20037;-69
2022/01/10 15:29:08;;;;;;;24.92;13.88;;;;;;;;;;5008704;28;20154;-65
2022/01/10 15:31:54;;;;;;;26.25;14.18;;;;;;;;;;5014316;28;20040;-63
2022/01/10 15:34:39;;;;;;;24.38;13.15;;;;;;;;;;5013386;28;20029;-62
2022/01/10 15:37:24;;;;;;;26.23;12.55;;;;;;;;;;5013599;28;20393;-63
2022/01/10 15:40:10;;;;;;;27.38;14.32;;;;;;;;;;5012956;28;20053;-65
2022/01/10 15:42:56;;;;;;;26.48;14.68;;;;;;;;;;5012704;28;20025;-65
2022/01/10 15:45:41;;;;;;;27.50;14.00;;;;;;;;;;5006296;28;20042;-62
2022/01/10 15:48:27;;;;;;;26.58;15.48;;;;;;;;;;5013451;28;20044;-66
2022/01/10 15:51:12;;;;;;;25.90;15.10;;;;;;;;;;4994336;28;20043;-67
2022/01/10 15:53:57;;;;;;;28.73;13.25;;;;;;;;;;5010331;28;20484;-67
2022/01/10 15:56:43;;;;;;;22.25;13.18;;;;;;;;;;5012313;28;20040;-69
2022/01/10 15:59:30;;;;;;;34.22;16.42;;;;;;;;;;5011873;28;20045;-69
2022/01/10 16:02:15;;;;;;;23.05;14.77;;;;;;;;;;5013364;28;20113;-66
2022/01/10 16:05:01;;;;;;;25.77;14.95;;;;;;;;;;5007596;28;20040;-66
2022/01/10 16:07:46;;;;;;;24.65;13.80;;;;;;;;;;5009863;28;20033;-67
2022/01/10 16:10:31;;;;;;;28.65;13.93;;;;;;;;;;4998768;28;20484;-66
2022/01/10 16:13:21;;;;;;;32.60;14.10;;;;;;;;;;5008697;28;20562;-66
2022/01/10 16:16:06;;;;;;;22.40;13.77;;;;;;;;;;5012375;28;20631;-64
2022/01/10 16:18:52;;;;;;;22.92;14.23;;;;;;;;;;5009643;28;20121;-67
2022/01/10 16:21:37;;;;;;;22.35;12.52;;;;;;;;;;5008603;28;20373;-65
2022/01/10 16:24:22;;;;;;;24.50;14.23;;;;;;;;;;5012894;28;20499;-70
2022/01/10 16:27:07;;;;;;;26.50;14.10;;;;;;;;;;5012434;28;20045;-71
2022/01/10 16:29:53;;;;;;;34.75;17.17;;;;;;;;;;5009424;28;20029;-72